sensor_id;sensor_type;location;lat;lon;timestamp;pressure;altitude;pressure_sealevel;temperature;humidity
43153;BME280;28756;49.064;9.290;2023-01-30T00:00:31;99820.28;;;-4.00;100.00
43153;BME280;28756;49.064;9.290;2023-01-30T00:02:57;99819.31;;;-4.05;100.00
43153;BME280;28756;49.064;9.290;2023-01-30T00:05:23;99819.31;;;-4.07;100.00
43153;BME280;28756;49.064;9.290;2023-01-30T00:07:48;99811.00;;;-3.97;100.00
43153;BME280;28756;49.064;9.290;2023-01-30T00:10:14;99813.56;;;-3.97;100.00
43153;BME280;28756;49.064;9.290;2023-01-30T00:12:40;99808.94;;;-3.66;100.00
43153;BME280;28756;49.064;9.290;2023-01-30T00:15:07;99818.06;;;-3.80;100.00
43153;BME280;28756;49.064;9.290;2023-01-30T00:17:33;99813.72;;;-3.87;100.00
43153;BME280;28756;49.064;9.290;2023-01-30T00:19:59;99801.69;;;-3.96;100.00
43153;BME280;28756;49.064;9.290;2023-01-30T00:22:24;99794.78;;;-4.05;100.00
43153;BME280;28756;49.064;9.290;2023-01-30T00:24:50;99790.44;;;-4.12;100.00
43153;BME280;28756;49.064;9.290;2023-01-30T00:27:16;99788.66;;;-4.18;100.00
43153;BME280;28756;49.064;9.290;2023-01-30T00:29:42;99800.44;;;-4.21;100.00
43153;BME280;28756;49.064;9.290;2023-01-30T00:32:08;99804.63;;;-4.23;100.00
43153;BME280;28756;49.064;9.290;2023-01-30T00:34:33;99809.69;;;-4.26;100.00
43153;BME280;28756;49.064;9.290;2023-01-30T00:36:59;99819.78;;;-4.28;100.00
43153;BME280;28756;49.064;9.290;2023-01-30T00:39:25;99831.66;;;-4.27;100.00
43153;BME280;28756;49.064;9.290;2023-01-30T00:41:51;99839.31;;;-4.25;100.00
43153;BME280;28756;49.064;9.290;2023-01-30T00:44:35;99852.88;;;-4.23;100.00
43153;BME280;28756;49.064;9.290;2023-01-30T00:47:20;99865.69;;;-4.17;100.00
43153;BME280;28756;49.064;9.290;2023-01-30T00:49:46;99876.75;;;-4.14;100.00
43153;BME280;28756;49.064;9.290;2023-01-30T00:52:11;99881.09;;;-4.08;100.00
43153;BME280;28756;49.064;9.290;2023-01-30T00:54:37;99886.41;;;-3.95;100.00
43153;BME280;28756;49.064;9.290;2023-01-30T00:57:03;99884.72;;;-3.95;100.00
43153;BME280;28756;49.064;9.290;2023-01-30T00:59:28;99874.66;;;-3.89;100.00
43153;BME280;28756;49.064;9.290;2023-01-30T01:01:54;99866.44;;;-3.74;100.00
43153;BME280;28756;49.064;9.290;2023-01-30T01:04:20;99869.31;;;-3.52;100.00
43153;BME280;28756;49.064;9.290;2023-01-30T01:06:46;99862.16;;;-3.18;100.00
43153;BME280;28756;49.064;9.290;2023-01-30T01:09:11;99850.16;;;-3.28;100.00
43153;BME280;28756;49.064;9.290;2023-01-30T01:11:37;99855.63;;;-2.99;100.00
43153;BME280;28756;49.064;9.290;2023-01-30T01:14:04;99856.34;;;-3.11;100.00
43153;BME280;28756;49.064;9.290;2023-01-30T01:16:32;99867.41;;;-3.09;100.00
43153;BME280;28756;49.064;9.290;2023-01-30T01:18:58;99864.78;;;-3.12;100.00
43153;BME280;28756;49.064;9.290;2023-01-30T01:21:24;99845.28;;;-3.13;100.00
43153;BME280;28756;49.064;9.290;2023-01-30T01:23:57;99844.44;;;-3.10;100.00
43153;BME280;28756;49.064;9.290;2023-01-30T01:26:24;99857.09;;;-3.18;100.00
43153;BME280;28756;49.064;9.290;2023-01-30T01:28:57;99847.88;;;-3.10;100.00
43153;BME280;28756;49.064;9.290;2023-01-30T01:31:23;99846.97;;;-3.13;100.00
43153;BME280;28756;49.064;9.290;2023-01-30T01:33:50;99849.44;;;-3.18;100.00
43153;BME280;28756;49.064;9.290;2023-01-30T01:36:16;99851.06;;;-3.23;100.00
43153;BME280;28756;49.064;9.290;2023-01-30T01:38:42;99862.88;;;-3.28;100.00
43153;BME280;28756;49.064;9.290;2023-01-30T01:41:14;99840.03;;;-3.25;100.00
43153;BME280;28756;49.064;9.290;2023-01-30T01:46:42;99808.75;;;-3.15;100.00
43153;BME280;28756;49.064;9.290;2023-01-30T01:49:34;99828.41;;;-3.05;100.00
43153;BME280;28756;49.064;9.290;2023-01-30T01:52:07;99820.00;;;-3.00;100.00
43153;BME280;28756;49.064;9.290;2023-01-30T01:54:46;99820.00;;;-2.97;100.00
43153;BME280;28756;49.064;9.290;2023-01-30T01:57:26;99816.63;;;-2.98;100.00
43153;BME280;28756;49.064;9.290;2023-01-30T02:00:20;99808.94;;;-2.99;100.00
43153;BME280;28756;49.064;9.290;2023-01-30T02:03:00;99795.44;;;-2.97;100.00
43153;BME280;28756;49.064;9.290;2023-01-30T02:05:31;99766.66;;;-2.90;100.00
43153;BME280;28756;49.064;9.290;2023-01-30T02:08:11;99756.44;;;-2.93;100.00
43153;BME280;28756;49.064;9.290;2023-01-30T02:13:26;99757.47;;;-2.77;100.00
43153;BME280;28756;49.064;9.290;2023-01-30T02:15:54;99750.78;;;-2.67;100.00
43153;BME280;28756;49.064;9.290;2023-01-30T02:18:21;99750.13;;;-2.44;100.00
43153;BME280;28756;49.064;9.290;2023-01-30T02:36:07;99715.44;;;-2.30;100.00
43153;BME280;28756;49.064;9.290;2023-01-30T02:39:09;99718.81;;;-2.32;100.00
43153;BME280;28756;49.064;9.290;2023-01-30T02:41:51;99723.94;;;-2.29;100.00
43153;BME280;28756;49.064;9.290;2023-01-30T02:44:39;99711.22;;;-2.29;100.00
43153;BME280;28756;49.064;9.290;2023-01-30T02:47:27;99711.22;;;-2.29;100.00
43153;BME280;28756;49.064;9.290;2023-01-30T02:52:57;99693.31;;;-2.39;100.00
43153;BME280;28756;49.064;9.290;2023-01-30T02:55:27;99686.59;;;-2.24;100.00
43153;BME280;28756;49.064;9.290;2023-01-30T02:57:54;99662.00;;;-2.22;100.00
43153;BME280;28756;49.064;9.290;2023-01-30T03:03:33;99658.59;;;-2.26;100.00
43153;BME280;28756;49.064;9.290;2023-01-30T03:09:21;99629.66;;;-2.31;100.00
43153;BME280;28756;49.064;9.290;2023-01-30T03:14:31;99633.81;;;-2.44;100.00
43153;BME280;28756;49.064;9.290;2023-01-30T03:17:03;99621.03;;;-2.48;100.00
43153;BME280;28756;49.064;9.290;2023-01-30T03:19:29;99610.00;;;-2.47;100.00
43153;BME280;28756;49.064;9.290;2023-01-30T03:21:55;99611.69;;;-2.52;100.00
43153;BME280;28756;49.064;9.290;2023-01-30T03:24:21;99624.41;;;-2.52;100.00
43153;BME280;28756;49.064;9.290;2023-01-30T03:27:01;99618.44;;;-2.55;100.00
43153;BME280;28756;49.064;9.290;2023-01-30T03:29:27;99636.28;;;-2.56;100.00
43153;BME280;28756;49.064;9.290;2023-01-30T03:31:53;99636.25;;;-2.59;100.00
43153;BME280;28756;49.064;9.290;2023-01-30T03:34:19;99637.06;;;-2.60;100.00
43153;BME280;28756;49.064;9.290;2023-01-30T03:36:46;99637.91;;;-2.63;100.00
43153;BME280;28756;49.064;9.290;2023-01-30T03:39:12;99630.31;;;-2.61;100.00
43153;BME280;28756;49.064;9.290;2023-01-30T03:41:37;99645.59;;;-2.60;100.00
43153;BME280;28756;49.064;9.290;2023-01-30T03:44:03;99647.25;;;-2.60;100.00
43153;BME280;28756;49.064;9.290;2023-01-30T03:46:29;99643.88;;;-2.59;100.00
43153;BME280;28756;49.064;9.290;2023-01-30T03:48:55;99632.84;;;-2.60;100.00
43153;BME280;28756;49.064;9.290;2023-01-30T03:51:21;99633.72;;;-2.56;100.00
43153;BME280;28756;49.064;9.290;2023-01-30T03:53:46;99636.31;;;-2.53;100.00
43153;BME280;28756;49.064;9.290;2023-01-30T03:56:12;99643.91;;;-2.58;100.00
43153;BME280;28756;49.064;9.290;2023-01-30T03:58:38;99655.78;;;-2.58;100.00
43153;BME280;28756;49.064;9.290;2023-01-30T04:01:03;99660.03;;;-2.59;100.00
43153;BME280;28756;49.064;9.290;2023-01-30T04:03:29;99654.91;;;-2.62;100.00
43153;BME280;28756;49.064;9.290;2023-01-30T04:05:55;99652.34;;;-2.63;100.00
43153;BME280;28756;49.064;9.290;2023-01-30T04:08:21;99659.09;;;-2.68;100.00
43153;BME280;28756;49.064;9.290;2023-01-30T04:10:47;99664.16;;;-2.70;100.00
43153;BME280;28756;49.064;9.290;2023-01-30T04:13:12;99664.16;;;-2.73;100.00
43153;BME280;28756;49.064;9.290;2023-01-30T04:15:38;99670.97;;;-2.71;100.00
43153;BME280;28756;49.064;9.290;2023-01-30T04:18:04;99677.78;;;-2.70;100.00
43153;BME280;28756;49.064;9.290;2023-01-30T04:20:30;99672.69;;;-2.70;100.00
43153;BME280;28756;49.064;9.290;2023-01-30T04:22:55;99661.66;;;-2.67;100.00
43153;BME280;28756;49.064;9.290;2023-01-30T04:25:21;99646.38;;;-2.65;100.00
43153;BME280;28756;49.064;9.290;2023-01-30T04:27:47;99642.16;;;-2.65;100.00
43153;BME280;28756;49.064;9.290;2023-01-30T04:30:13;99651.50;;;-2.62;100.00
43153;BME280;28756;49.064;9.290;2023-01-30T04:32:39;99660.00;;;-2.62;100.00
43153;BME280;28756;49.064;9.290;2023-01-30T04:35:05;99655.78;;;-2.61;100.00
43153;BME280;28756;49.064;9.290;2023-01-30T04:37:30;99660.88;;;-2.61;100.00
43153;BME280;28756;49.064;9.290;2023-01-30T04:39:56;99648.13;;;-2.60;100.00
43153;BME280;28756;49.064;9.290;2023-01-30T04:42:22;99641.34;;;-2.62;100.00
43153;BME280;28756;49.064;9.290;2023-01-30T04:44:47;99642.16;;;-2.62;100.00
43153;BME280;28756;49.064;9.290;2023-01-30T04:47:13;99641.34;;;-2.61;100.00
43153;BME280;28756;49.064;9.290;2023-01-30T04:49:39;99637.13;;;-2.59;100.00
43153;BME280;28756;49.064;9.290;2023-01-30T04:52:04;99633.69;;;-2.61;100.00
43153;BME280;28756;49.064;9.290;2023-01-30T04:54:31;99639.66;;;-2.59;100.00
43153;BME280;28756;49.064;9.290;2023-01-30T04:56:56;99641.34;;;-2.59;100.00
43153;BME280;28756;49.064;9.290;2023-01-30T04:59:22;99642.22;;;-2.59;100.00
43153;BME280;28756;49.064;9.290;2023-01-30T05:01:48;99637.94;;;-2.58;100.00
43153;BME280;28756;49.064;9.290;2023-01-30T05:04:13;99637.94;;;-2.58;100.00
43153;BME280;28756;49.064;9.290;2023-01-30T05:06:39;99630.31;;;-2.61;100.00
43153;BME280;28756;49.064;9.290;2023-01-30T05:09:05;99621.78;;;-2.63;100.00
43153;BME280;28756;49.064;9.290;2023-01-30T05:11:32;99626.00;;;-2.67;100.00
43153;BME280;28756;49.064;9.290;2023-01-30T05:13:58;99631.94;;;-2.70;100.00
43153;BME280;28756;49.064;9.290;2023-01-30T05:16:24;99623.47;;;-2.67;100.00
43153;BME280;28756;49.064;9.290;2023-01-30T05:18:50;99633.66;;;-2.68;100.00
43153;BME280;28756;49.064;9.290;2023-01-30T05:21:20;99628.56;;;-2.65;100.00
43153;BME280;28756;49.064;9.290;2023-01-30T05:23:46;99620.09;;;-2.64;100.00
43153;BME280;28756;49.064;9.290;2023-01-30T05:26:13;99622.63;;;-2.63;100.00
43153;BME280;28756;49.064;9.290;2023-01-30T05:28:40;99606.53;;;-2.62;100.00
43153;BME280;28756;49.064;9.290;2023-01-30T05:31:10;99593.81;;;-2.59;100.00
43153;BME280;28756;49.064;9.290;2023-01-30T05:33:37;99589.56;;;-2.60;100.00
43153;BME280;28756;49.064;9.290;2023-01-30T05:36:03;99592.91;;;-2.64;100.00
43153;BME280;28756;49.064;9.290;2023-01-30T05:38:29;99577.63;;;-2.64;100.00
43153;BME280;28756;49.064;9.290;2023-01-30T05:41:05;99570.00;;;-2.65;100.00
43153;BME280;28756;49.064;9.290;2023-01-30T05:43:33;99572.53;;;-2.68;100.00
43153;BME280;28756;49.064;9.290;2023-01-30T05:46:01;99566.59;;;-2.67;100.00
43153;BME280;28756;49.064;9.290;2023-01-30T05:48:27;99570.88;;;-2.65;100.00
43153;BME280;28756;49.064;9.290;2023-01-30T05:50:56;99564.91;;;-2.67;100.00
43153;BME280;28756;49.064;9.290;2023-01-30T05:53:25;99572.53;;;-2.64;100.00
43153;BME280;28756;49.064;9.290;2023-01-30T05:55:56;99574.25;;;-2.64;100.00
43153;BME280;28756;49.064;9.290;2023-01-30T05:58:23;99569.16;;;-2.63;100.00
43153;BME280;28756;49.064;9.290;2023-01-30T06:00:49;99568.31;;;-2.60;100.00
43153;BME280;28756;49.064;9.290;2023-01-30T06:03:14;99571.75;;;-2.60;100.00
43153;BME280;28756;49.064;9.290;2023-01-30T06:05:40;99565.81;;;-2.57;100.00
43153;BME280;28756;49.064;9.290;2023-01-30T06:08:06;99575.19;;;-2.53;100.00
43153;BME280;28756;49.064;9.290;2023-01-30T06:10:33;99576.13;;;-2.39;100.00
43153;BME280;28756;49.064;9.290;2023-01-30T06:12:59;99565.09;;;-2.34;100.00
43153;BME280;28756;49.064;9.290;2023-01-30T06:15:25;99564.34;;;-2.19;100.00
43153;BME280;28756;49.064;9.290;2023-01-30T06:17:50;99562.66;;;-2.14;100.00
43153;BME280;28756;49.064;9.290;2023-01-30T06:20:16;99549.03;;;-2.18;100.00
43153;BME280;28756;49.064;9.290;2023-01-30T06:22:42;99551.63;;;-2.13;100.00
43153;BME280;28756;49.064;9.290;2023-01-30T06:25:08;99542.25;;;-2.13;100.00
43153;BME280;28756;49.064;9.290;2023-01-30T06:27:34;99545.69;;;-2.11;100.00
43153;BME280;28756;49.064;9.290;2023-01-30T06:30:00;99551.63;;;-2.12;100.00
43153;BME280;28756;49.064;9.290;2023-01-30T06:32:26;99555.88;;;-2.12;100.00
43153;BME280;28756;49.064;9.290;2023-01-30T06:34:51;99565.22;;;-2.10;100.00
43153;BME280;28756;49.064;9.290;2023-01-30T06:37:17;99579.69;;;-2.01;100.00
43153;BME280;28756;49.064;9.290;2023-01-30T06:39:43;99586.53;;;-1.95;100.00
43153;BME280;28756;49.064;9.290;2023-01-30T06:42:08;99576.31;;;-1.95;100.00
43153;BME280;28756;49.064;9.290;2023-01-30T06:44:34;99568.69;;;-1.95;100.00
43153;BME280;28756;49.064;9.290;2023-01-30T06:47:00;99565.25;;;-1.97;100.00
43153;BME280;28756;49.064;9.290;2023-01-30T06:49:25;99568.66;;;-2.00;100.00
43153;BME280;28756;49.064;9.290;2023-01-30T06:51:51;99565.28;;;-1.99;100.00
43153;BME280;28756;49.064;9.290;2023-01-30T06:54:17;99558.50;;;-1.98;100.00
43153;BME280;28756;49.064;9.290;2023-01-30T06:56:42;99560.22;;;-1.91;100.00
43153;BME280;28756;49.064;9.290;2023-01-30T06:59:08;99563.63;;;-1.86;100.00
43153;BME280;28756;49.064;9.290;2023-01-30T07:01:34;99561.09;;;-1.77;100.00
43153;BME280;28756;49.064;9.290;2023-01-30T07:04:00;99562.81;;;-1.72;100.00
43153;BME280;28756;49.064;9.290;2023-01-30T07:06:26;99567.09;;;-1.68;100.00
43153;BME280;28756;49.064;9.290;2023-01-30T07:08:52;99567.97;;;-1.59;100.00
43153;BME280;28756;49.064;9.290;2023-01-30T07:11:18;99580.72;;;-1.59;100.00
43153;BME280;28756;49.064;9.290;2023-01-30T07:13:43;99576.44;;;-1.60;100.00
43153;BME280;28756;49.064;9.290;2023-01-30T07:16:09;99577.31;;;-1.59;100.00
43153;BME280;28756;49.064;9.290;2023-01-30T07:18:35;99586.66;;;-1.60;100.00
43153;BME280;28756;49.064;9.290;2023-01-30T07:21:00;99584.09;;;-1.60;100.00
43153;BME280;28756;49.064;9.290;2023-01-30T07:23:26;99576.47;;;-1.63;100.00
43153;BME280;28756;49.064;9.290;2023-01-30T07:25:52;99578.13;;;-1.63;100.00
43153;BME280;28756;49.064;9.290;2023-01-30T07:28:18;99570.50;;;-1.66;100.00
43153;BME280;28756;49.064;9.290;2023-01-30T07:30:43;99572.19;;;-1.68;100.00
43153;BME280;28756;49.064;9.290;2023-01-30T07:33:09;99578.13;;;-1.68;100.00
43153;BME280;28756;49.064;9.290;2023-01-30T07:35:36;99586.69;;;-1.56;100.00
43153;BME280;28756;49.064;9.290;2023-01-30T07:38:03;99573.06;;;-1.55;100.00
43153;BME280;28756;49.064;9.290;2023-01-30T07:40:29;99569.69;;;-1.45;100.00
43153;BME280;28756;49.064;9.290;2023-01-30T07:43:01;99579.06;;;-1.47;100.00
43153;BME280;28756;49.064;9.290;2023-01-30T07:45:39;99581.59;;;-1.46;100.00
43153;BME280;28756;49.064;9.290;2023-01-30T07:48:07;99573.94;;;-1.47;100.00
43153;BME280;28756;49.064;9.290;2023-01-30T07:50:34;99581.59;;;-1.44;100.00
43153;BME280;28756;49.064;9.290;2023-01-30T07:53:13;99572.25;;;-1.42;100.00
43153;BME280;28756;49.064;9.290;2023-01-30T07:55:39;99556.94;;;-1.40;100.00
43153;BME280;28756;49.064;9.290;2023-01-30T07:58:06;99538.22;;;-1.44;100.00
43153;BME280;28756;49.064;9.290;2023-01-30T08:00:32;99519.53;;;-1.45;100.00
43153;BME280;28756;49.064;9.290;2023-01-30T08:02:58;99533.13;;;-1.41;100.00
43153;BME280;28756;49.064;9.290;2023-01-30T08:05:25;99516.13;;;-1.42;100.00
43153;BME280;28756;49.064;9.290;2023-01-30T08:07:50;99537.38;;;-1.38;100.00
43153;BME280;28756;49.064;9.290;2023-01-30T08:10:17;99552.69;;;-1.34;100.00
43153;BME280;28756;49.064;9.290;2023-01-30T08:12:43;99543.34;;;-1.19;100.00
43153;BME280;28756;49.064;9.290;2023-01-30T08:15:09;99532.28;;;-1.21;100.00
43153;BME280;28756;49.064;9.290;2023-01-30T08:17:53;99508.47;;;-1.20;100.00
43153;BME280;28756;49.064;9.290;2023-01-30T08:20:20;99527.19;;;-1.21;100.00
43153;BME280;28756;49.064;9.290;2023-01-30T08:22:45;99507.63;;;-1.24;100.00
43153;BME280;28756;49.064;9.290;2023-01-30T08:25:11;99492.31;;;-1.24;100.00
43153;BME280;28756;49.064;9.290;2023-01-30T08:27:37;99489.75;;;-1.24;100.00
43153;BME280;28756;49.064;9.290;2023-01-30T08:30:03;99483.81;;;-1.20;100.00
43153;BME280;28756;49.064;9.290;2023-01-30T08:32:29;99509.31;;;-1.17;100.00
43153;BME280;28756;49.064;9.290;2023-01-30T08:34:54;99533.16;;;-1.15;100.00
43153;BME280;28756;49.064;9.290;2023-01-30T08:37:20;99538.25;;;-1.05;100.00
43153;BME280;28756;49.064;9.290;2023-01-30T08:39:45;99514.41;;;-1.06;100.00
43153;BME280;28756;49.064;9.290;2023-01-30T08:42:11;99523.78;;;-1.05;100.00
43153;BME280;28756;49.064;9.290;2023-01-30T08:44:37;99511.03;;;-1.02;100.00
43153;BME280;28756;49.064;9.290;2023-01-30T08:47:03;99506.75;;;-1.01;100.00
43153;BME280;28756;49.064;9.290;2023-01-30T08:49:28;99515.28;;;-0.99;100.00
43153;BME280;28756;49.064;9.290;2023-01-30T08:51:54;99509.31;;;-0.98;100.00
43153;BME280;28756;49.064;9.290;2023-01-30T08:54:25;99503.38;;;-1.00;100.00
43153;BME280;28756;49.064;9.290;2023-01-30T08:56:52;99489.75;;;-0.98;100.00
43153;BME280;28756;49.064;9.290;2023-01-30T08:59:17;99488.91;;;-0.98;100.00
43153;BME280;28756;49.064;9.290;2023-01-30T09:01:43;99486.34;;;-0.95;100.00
43153;BME280;28756;49.064;9.290;2023-01-30T09:04:09;99488.88;;;-0.92;100.00
43153;BME280;28756;49.064;9.290;2023-01-30T09:06:34;99474.44;;;-0.90;100.00
43153;BME280;28756;49.064;9.290;2023-01-30T09:09:00;99493.13;;;-0.85;100.00
43153;BME280;28756;49.064;9.290;2023-01-30T09:11:26;99476.97;;;-0.84;100.00
43153;BME280;28756;49.064;9.290;2023-01-30T09:13:52;99496.53;;;-0.81;100.00
43153;BME280;28756;49.064;9.290;2023-01-30T09:16:18;99499.94;;;-0.79;100.00
43153;BME280;28756;49.064;9.290;2023-01-30T09:18:44;99497.38;;;-0.76;100.00
43153;BME280;28756;49.064;9.290;2023-01-30T09:21:11;99491.44;;;-0.80;100.00
43153;BME280;28756;49.064;9.290;2023-01-30T09:23:37;99488.84;;;-0.70;100.00
43153;BME280;28756;49.064;9.290;2023-01-30T09:26:04;99479.47;;;-0.64;100.00
43153;BME280;28756;49.064;9.290;2023-01-30T09:28:30;99484.53;;;-0.45;100.00
43153;BME280;28756;49.064;9.290;2023-01-30T09:30:58;99479.44;;;-0.50;100.00
43153;BME280;28756;49.064;9.290;2023-01-30T09:33:24;99478.31;;;0.13;100.00
43153;BME280;28756;49.064;9.290;2023-01-30T09:35:50;99484.34;;;0.02;100.00
43153;BME280;28756;49.064;9.290;2023-01-30T09:38:18;99475.69;;;0.24;100.00
43153;BME280;28756;49.064;9.290;2023-01-30T09:41:04;99459.44;;;0.30;100.00
43153;BME280;28756;49.064;9.290;2023-01-30T09:44:13;99439.75;;;0.43;100.00
43153;BME280;28756;49.064;9.290;2023-01-30T09:47:06;99455.81;;;0.59;100.00
43153;BME280;28756;49.064;9.290;2023-01-30T09:49:50;99440.44;;;0.63;100.00
43153;BME280;28756;49.064;9.290;2023-01-30T09:55:16;99442.97;;;0.67;100.00
43153;BME280;28756;49.064;9.290;2023-01-30T09:57:44;99444.63;;;0.74;100.00
43153;BME280;28756;49.064;9.290;2023-01-30T10:03:07;99448.72;;;0.89;100.00
43153;BME280;28756;49.064;9.290;2023-01-30T10:05:54;99437.56;;;0.98;100.00
43153;BME280;28756;49.064;9.290;2023-01-30T10:08:39;99431.50;;;1.06;100.00
43153;BME280;28756;49.064;9.290;2023-01-30T10:25:53;99414.38;;;1.10;100.00
43153;BME280;28756;49.064;9.290;2023-01-30T10:28:36;99433.22;;;1.04;100.00
43153;BME280;28756;49.064;9.290;2023-01-30T10:31:12;99426.34;;;1.09;100.00
43153;BME280;28756;49.064;9.290;2023-01-30T10:42:13;99421.28;;;1.05;100.00
43153;BME280;28756;49.064;9.290;2023-01-30T10:44:40;99421.25;;;1.09;100.00
43153;BME280;28756;49.064;9.290;2023-01-30T10:47:40;99434.94;;;1.04;100.00
43153;BME280;28756;49.064;9.290;2023-01-30T10:53:33;99436.66;;;1.05;100.00
43153;BME280;28756;49.064;9.290;2023-01-30T10:56:24;99436.63;;;1.03;100.00
43153;BME280;28756;49.064;9.290;2023-01-30T11:05:19;99441.00;;;0.97;100.00
43153;BME280;28756;49.064;9.290;2023-01-30T11:07:46;99434.91;;;1.05;100.00
43153;BME280;28756;49.064;9.290;2023-01-30T11:10:23;99426.47;;;0.99;100.00
43153;BME280;28756;49.064;9.290;2023-01-30T11:13:12;99423.03;;;1.01;100.00
43153;BME280;28756;49.064;9.290;2023-01-30T11:15:40;99413.63;;;1.00;100.00
43153;BME280;28756;49.064;9.290;2023-01-30T11:18:06;99408.47;;;1.03;100.00
43153;BME280;28756;49.064;9.290;2023-01-30T11:20:42;99405.91;;;1.05;100.00
43153;BME280;28756;49.064;9.290;2023-01-30T11:23:41;99404.97;;;1.10;100.00
43153;BME280;28756;49.064;9.290;2023-01-30T11:26:28;99420.31;;;1.14;100.00
43153;BME280;28756;49.064;9.290;2023-01-30T11:28:55;99418.72;;;1.05;100.00
43153;BME280;28756;49.064;9.290;2023-01-30T11:31:29;99424.63;;;1.10;100.00
43153;BME280;28756;49.064;9.290;2023-01-30T11:34:07;99419.50;;;1.10;100.00
43153;BME280;28756;49.064;9.290;2023-01-30T11:36:36;99416.97;;;1.08;100.00
43153;BME280;28756;49.064;9.290;2023-01-30T11:39:20;99416.97;;;1.07;100.00
43153;BME280;28756;49.064;9.290;2023-01-30T11:44:40;99402.28;;;1.26;100.00
43153;BME280;28756;49.064;9.290;2023-01-30T11:47:24;99397.97;;;1.30;100.00
43153;BME280;28756;49.064;9.290;2023-01-30T11:49:54;99395.34;;;1.33;100.00
43153;BME280;28756;49.064;9.290;2023-01-30T11:52:28;99391.88;;;1.35;100.00
43153;BME280;28756;49.064;9.290;2023-01-30T11:55:06;99410.69;;;1.34;100.00
43153;BME280;28756;49.064;9.290;2023-01-30T11:57:56;99385.66;;;1.56;100.00
43153;BME280;28756;49.064;9.290;2023-01-30T12:00:37;99384.78;;;1.57;100.00
43153;BME280;28756;49.064;9.290;2023-01-30T12:03:10;99381.47;;;1.49;100.00
43153;BME280;28756;49.064;9.290;2023-01-30T12:05:38;99368.66;;;1.49;100.00
43153;BME280;28756;49.064;9.290;2023-01-30T12:10:53;99376.31;;;1.52;100.00
43153;BME280;28756;49.064;9.290;2023-01-30T12:19:02;99375.63;;;1.39;100.00
43153;BME280;28756;49.064;9.290;2023-01-30T12:21:46;99374.69;;;1.47;100.00
43153;BME280;28756;49.064;9.290;2023-01-30T12:24:30;99389.19;;;1.48;100.00
43153;BME280;28756;49.064;9.290;2023-01-30T12:27:12;99368.69;;;1.46;100.00
43153;BME280;28756;49.064;9.290;2023-01-30T12:30:01;99391.81;;;1.43;100.00
43153;BME280;28756;49.064;9.290;2023-01-30T12:32:32;99381.56;;;1.43;100.00
43153;BME280;28756;49.064;9.290;2023-01-30T12:35:01;99374.75;;;1.40;100.00
43153;BME280;28756;49.064;9.290;2023-01-30T12:37:42;99387.56;;;1.39;100.00
43153;BME280;28756;49.064;9.290;2023-01-30T12:40:49;99392.72;;;1.37;100.00
43153;BME280;28756;49.064;9.290;2023-01-30T12:43:54;99407.25;;;1.37;100.00
43153;BME280;28756;49.064;9.290;2023-01-30T12:58:05;99400.34;;;1.42;100.00
43153;BME280;28756;49.064;9.290;2023-01-30T13:12:48;99397.75;;;1.47;100.00
43153;BME280;28756;49.064;9.290;2023-01-30T13:15:30;99411.34;;;1.52;100.00
43153;BME280;28756;49.064;9.290;2023-01-30T13:24:23;99420.78;;;1.48;100.00
43153;BME280;28756;49.064;9.290;2023-01-30T13:26:52;99442.91;;;1.55;100.00
43153;BME280;28756;49.064;9.290;2023-01-30T13:29:38;99453.25;;;1.49;100.00
43153;BME280;28756;49.064;9.290;2023-01-30T13:32:15;99444.78;;;1.41;100.00
43153;BME280;28756;49.064;9.290;2023-01-30T13:34:46;99455.88;;;1.43;100.00
43153;BME280;28756;49.064;9.290;2023-01-30T13:37:19;99465.38;;;1.35;100.00
43153;BME280;28756;49.064;9.290;2023-01-30T13:39:54;99457.75;;;1.27;100.00
43153;BME280;28756;49.064;9.290;2023-01-30T13:42:43;99463.81;;;1.20;100.00
43153;BME280;28756;49.064;9.290;2023-01-30T13:45:24;99467.22;;;1.20;100.00
43153;BME280;28756;49.064;9.290;2023-01-30T13:51:48;99489.47;;;1.17;100.00
43153;BME280;28756;49.064;9.290;2023-01-30T13:54:26;99487.78;;;1.14;100.00
43153;BME280;28756;49.064;9.290;2023-01-30T14:03:20;99494.59;;;1.14;100.00
43153;BME280;28756;49.064;9.290;2023-01-30T14:08:19;99476.66;;;1.15;100.00
43153;BME280;28756;49.064;9.290;2023-01-30T14:10:47;99487.84;;;1.09;100.00
43153;BME280;28756;49.064;9.290;2023-01-30T14:13:15;99491.22;;;1.12;100.00
43153;BME280;28756;49.064;9.290;2023-01-30T14:16:02;99478.38;;;1.18;100.00
43153;BME280;28756;49.064;9.290;2023-01-30T14:18:34;99471.47;;;1.23;100.00
43153;BME280;28756;49.064;9.290;2023-01-30T14:21:21;99471.50;;;1.18;100.00
43153;BME280;28756;49.064;9.290;2023-01-30T14:24:00;99484.28;;;1.20;100.00
43153;BME280;28756;49.064;9.290;2023-01-30T14:34:39;99495.28;;;1.33;100.00
43153;BME280;28756;49.064;9.290;2023-01-30T14:40:30;99491.00;;;1.35;100.00
43153;BME280;28756;49.064;9.290;2023-01-30T14:57:03;99508.03;;;1.37;100.00
43153;BME280;28756;49.064;9.290;2023-01-30T15:08:19;99506.22;;;1.50;100.00
43153;BME280;28756;49.064;9.290;2023-01-30T15:14:01;99521.63;;;1.46;100.00
43153;BME280;28756;49.064;9.290;2023-01-30T15:20:16;99524.22;;;1.44;100.00
43153;BME280;28756;49.064;9.290;2023-01-30T15:26:57;99519.84;;;1.54;100.00
43153;BME280;28756;49.064;9.290;2023-01-30T15:32:23;99532.72;;;1.48;100.00
43153;BME280;28756;49.064;9.290;2023-01-30T15:37:38;99542.06;;;1.52;100.00
43153;BME280;28756;49.064;9.290;2023-01-30T15:45:53;99536.00;;;1.61;100.00
43153;BME280;28756;49.064;9.290;2023-01-30T15:51:25;99538.63;;;1.54;100.00
43153;BME280;28756;49.064;9.290;2023-01-30T15:53:55;99538.72;;;1.47;100.00
43153;BME280;28756;49.064;9.290;2023-01-30T15:56:27;99548.16;;;1.43;100.00
43153;BME280;28756;49.064;9.290;2023-01-30T15:58:56;99552.47;;;1.39;100.00
43153;BME280;28756;49.064;9.290;2023-01-30T16:01:23;99562.66;;;1.42;100.00
43153;BME280;28756;49.064;9.290;2023-01-30T16:03:49;99566.13;;;1.41;100.00
43153;BME280;28756;49.064;9.290;2023-01-30T16:06:36;99557.53;;;1.44;100.00
43153;BME280;28756;49.064;9.290;2023-01-30T16:09:20;99562.72;;;1.38;100.00
43153;BME280;28756;49.064;9.290;2023-01-30T16:11:46;99562.63;;;1.46;100.00
43153;BME280;28756;49.064;9.290;2023-01-30T16:14:15;99574.59;;;1.47;100.00